sensor_id;sensor_type;location;lat;lon;timestamp;P1;durP1;ratioP1;P2;durP2;ratioP2
2544;SDS011;36212;48.838;9.142;2022-10-13T00:01:07;18.95;;;17.10;;
2544;SDS011;36212;48.838;9.142;2022-10-13T00:03:44;23.52;;;16.67;;
2544;SDS011;36212;48.838;9.142;2022-10-13T00:06:18;17.88;;;15.77;;
2544;SDS011;36212;48.838;9.142;2022-10-13T00:08:53;17.55;;;15.05;;
2544;SDS011;36212;48.838;9.142;2022-10-13T00:11:28;19.63;;;15.65;;
2544;SDS011;36212;48.838;9.142;2022-10-13T00:14:01;21.80;;;17.80;;
2544;SDS011;36212;48.838;9.142;2022-10-13T00:16:35;19.27;;;16.77;;
2544;SDS011;36212;48.838;9.142;2022-10-13T00:19:07;20.33;;;16.50;;
2544;SDS011;36212;48.838;9.142;2022-10-13T00:21:45;20.25;;;17.23;;
2544;SDS011;36212;48.838;9.142;2022-10-13T00:24:17;25.52;;;18.30;;
2544;SDS011;36212;48.838;9.142;2022-10-13T00:26:49;24.45;;;17.60;;
2544;SDS011;36212;48.838;9.142;2022-10-13T00:29:22;26.92;;;19.23;;
2544;SDS011;36212;48.838;9.142;2022-10-13T00:31:54;25.48;;;20.15;;
2544;SDS011;36212;48.838;9.142;2022-10-13T00:34:26;24.58;;;17.92;;
2544;SDS011;36212;48.838;9.142;2022-10-13T00:36:58;24.48;;;19.27;;
2544;SDS011;36212;48.838;9.142;2022-10-13T00:39:30;21.85;;;17.65;;
2544;SDS011;36212;48.838;9.142;2022-10-13T00:42:03;19.38;;;16.90;;
2544;SDS011;36212;48.838;9.142;2022-10-13T00:47:38;17.30;;;15.38;;
2544;SDS011;36212;48.838;9.142;2022-10-13T00:50:17;21.13;;;16.15;;
2544;SDS011;36212;48.838;9.142;2022-10-13T00:52:56;26.05;;;16.00;;
2544;SDS011;36212;48.838;9.142;2022-10-13T00:55:33;20.73;;;16.92;;
2544;SDS011;36212;48.838;9.142;2022-10-13T00:58:09;21.75;;;15.52;;
2544;SDS011;36212;48.838;9.142;2022-10-13T01:00:48;20.13;;;16.35;;
2544;SDS011;36212;48.838;9.142;2022-10-13T01:03:23;20.75;;;16.13;;
2544;SDS011;36212;48.838;9.142;2022-10-13T01:05:57;20.75;;;17.27;;
2544;SDS011;36212;48.838;9.142;2022-10-13T01:08:33;18.00;;;15.50;;
2544;SDS011;36212;48.838;9.142;2022-10-13T01:16:59;19.52;;;15.18;;
2544;SDS011;36212;48.838;9.142;2022-10-13T01:20:52;18.63;;;15.20;;
2544;SDS011;36212;48.838;9.142;2022-10-13T01:30:16;17.38;;;14.25;;
2544;SDS011;36212;48.838;9.142;2022-10-13T01:33:05;18.83;;;15.35;;
2544;SDS011;36212;48.838;9.142;2022-10-13T01:39:32;17.05;;;14.18;;
2544;SDS011;36212;48.838;9.142;2022-10-13T01:42:18;23.20;;;15.82;;
2544;SDS011;36212;48.838;9.142;2022-10-13T01:45:01;23.55;;;17.63;;
2544;SDS011;36212;48.838;9.142;2022-10-13T01:47:36;20.05;;;16.77;;
2544;SDS011;36212;48.838;9.142;2022-10-13T01:50:10;22.20;;;17.35;;
2544;SDS011;36212;48.838;9.142;2022-10-13T01:52:46;21.15;;;17.73;;
2544;SDS011;36212;48.838;9.142;2022-10-13T01:55:21;25.58;;;17.88;;
2544;SDS011;36212;48.838;9.142;2022-10-13T01:57:53;23.52;;;17.17;;
2544;SDS011;36212;48.838;9.142;2022-10-13T02:00:25;23.25;;;16.70;;
2544;SDS011;36212;48.838;9.142;2022-10-13T02:06:31;22.30;;;16.88;;
2544;SDS011;36212;48.838;9.142;2022-10-13T02:13:16;20.25;;;17.35;;
2544;SDS011;36212;48.838;9.142;2022-10-13T02:15:45;21.95;;;17.30;;
2544;SDS011;36212;48.838;9.142;2022-10-13T02:18:28;26.73;;;20.52;;
2544;SDS011;36212;48.838;9.142;2022-10-13T02:21:04;34.25;;;23.40;;
2544;SDS011;36212;48.838;9.142;2022-10-13T02:23:36;25.52;;;19.90;;
2544;SDS011;36212;48.838;9.142;2022-10-13T02:26:08;25.85;;;19.33;;
2544;SDS011;36212;48.838;9.142;2022-10-13T02:28:46;22.88;;;19.85;;
2544;SDS011;36212;48.838;9.142;2022-10-13T02:31:18;22.63;;;18.45;;
2544;SDS011;36212;48.838;9.142;2022-10-13T02:33:50;19.60;;;16.83;;
2544;SDS011;36212;48.838;9.142;2022-10-13T02:36:22;22.92;;;17.48;;
2544;SDS011;36212;48.838;9.142;2022-10-13T02:38:54;19.30;;;15.93;;
2544;SDS011;36212;48.838;9.142;2022-10-13T02:41:26;20.52;;;17.15;;
2544;SDS011;36212;48.838;9.142;2022-10-13T02:43:58;18.70;;;15.88;;
2544;SDS011;36212;48.838;9.142;2022-10-13T02:46:30;22.52;;;16.92;;
2544;SDS011;36212;48.838;9.142;2022-10-13T02:49:03;20.80;;;16.73;;
2544;SDS011;36212;48.838;9.142;2022-10-13T02:51:35;23.10;;;16.52;;
2544;SDS011;36212;48.838;9.142;2022-10-13T02:54:11;24.17;;;17.52;;
2544;SDS011;36212;48.838;9.142;2022-10-13T02:56:43;23.13;;;18.25;;
2544;SDS011;36212;48.838;9.142;2022-10-13T02:59:15;27.90;;;18.85;;
2544;SDS011;36212;48.838;9.142;2022-10-13T03:01:47;25.15;;;18.70;;
2544;SDS011;36212;48.838;9.142;2022-10-13T03:04:19;24.08;;;17.77;;
2544;SDS011;36212;48.838;9.142;2022-10-13T03:06:51;22.02;;;19.15;;
2544;SDS011;36212;48.838;9.142;2022-10-13T03:09:23;19.88;;;16.45;;
2544;SDS011;36212;48.838;9.142;2022-10-13T03:11:55;22.55;;;18.85;;
2544;SDS011;36212;48.838;9.142;2022-10-13T03:14:28;25.35;;;20.30;;
2544;SDS011;36212;48.838;9.142;2022-10-13T03:17:00;25.38;;;19.50;;
2544;SDS011;36212;48.838;9.142;2022-10-13T03:19:32;28.35;;;22.15;;
2544;SDS011;36212;48.838;9.142;2022-10-13T03:22:04;23.48;;;18.85;;
2544;SDS011;36212;48.838;9.142;2022-10-13T03:24:36;24.92;;;19.48;;
2544;SDS011;36212;48.838;9.142;2022-10-13T03:27:08;29.55;;;21.38;;
2544;SDS011;36212;48.838;9.142;2022-10-13T03:29:40;26.00;;;20.90;;
2544;SDS011;36212;48.838;9.142;2022-10-13T03:32:12;26.63;;;20.20;;
2544;SDS011;36212;48.838;9.142;2022-10-13T03:34:45;30.67;;;22.13;;
2544;SDS011;36212;48.838;9.142;2022-10-13T03:37:20;31.00;;;21.83;;
2544;SDS011;36212;48.838;9.142;2022-10-13T03:39:52;30.02;;;21.63;;
2544;SDS011;36212;48.838;9.142;2022-10-13T03:42:24;28.80;;;21.73;;
2544;SDS011;36212;48.838;9.142;2022-10-13T03:44:56;30.90;;;20.30;;
2544;SDS011;36212;48.838;9.142;2022-10-13T03:47:28;25.90;;;20.40;;
2544;SDS011;36212;48.838;9.142;2022-10-13T03:50:04;27.15;;;20.40;;
2544;SDS011;36212;48.838;9.142;2022-10-13T03:52:38;36.72;;;20.70;;
2544;SDS011;36212;48.838;9.142;2022-10-13T03:55:10;30.73;;;21.13;;
2544;SDS011;36212;48.838;9.142;2022-10-13T03:57:42;24.55;;;19.55;;
2544;SDS011;36212;48.838;9.142;2022-10-13T04:00:14;29.65;;;21.17;;
2544;SDS011;36212;48.838;9.142;2022-10-13T04:02:47;24.75;;;19.10;;
2544;SDS011;36212;48.838;9.142;2022-10-13T04:05:20;30.42;;;21.65;;
2544;SDS011;36212;48.838;9.142;2022-10-13T04:07:52;26.35;;;22.38;;
2544;SDS011;36212;48.838;9.142;2022-10-13T04:10:24;29.10;;;23.25;;
2544;SDS011;36212;48.838;9.142;2022-10-13T04:12:56;26.88;;;19.35;;
2544;SDS011;36212;48.838;9.142;2022-10-13T04:15:28;28.30;;;18.75;;
2544;SDS011;36212;48.838;9.142;2022-10-13T04:18:06;27.92;;;19.77;;
2544;SDS011;36212;48.838;9.142;2022-10-13T04:20:39;21.30;;;18.13;;
2544;SDS011;36212;48.838;9.142;2022-10-13T04:23:11;29.20;;;19.25;;
2544;SDS011;36212;48.838;9.142;2022-10-13T04:25:43;26.20;;;19.73;;
2544;SDS011;36212;48.838;9.142;2022-10-13T04:28:16;26.25;;;20.77;;
2544;SDS011;36212;48.838;9.142;2022-10-13T04:30:48;26.00;;;19.67;;
2544;SDS011;36212;48.838;9.142;2022-10-13T04:33:20;21.60;;;19.17;;
2544;SDS011;36212;48.838;9.142;2022-10-13T04:35:52;24.17;;;18.13;;
2544;SDS011;36212;48.838;9.142;2022-10-13T04:38:25;24.45;;;19.40;;
2544;SDS011;36212;48.838;9.142;2022-10-13T04:40:57;24.08;;;19.83;;
2544;SDS011;36212;48.838;9.142;2022-10-13T04:43:32;21.77;;;18.45;;
2544;SDS011;36212;48.838;9.142;2022-10-13T04:46:12;22.52;;;18.48;;
2544;SDS011;36212;48.838;9.142;2022-10-13T04:48:48;26.23;;;19.48;;
2544;SDS011;36212;48.838;9.142;2022-10-13T04:51:25;21.50;;;19.20;;
2544;SDS011;36212;48.838;9.142;2022-10-13T04:53:58;20.42;;;17.58;;
2544;SDS011;36212;48.838;9.142;2022-10-13T04:56:32;20.05;;;17.95;;
2544;SDS011;36212;48.838;9.142;2022-10-13T04:59:04;21.00;;;18.80;;
2544;SDS011;36212;48.838;9.142;2022-10-13T05:01:36;22.52;;;19.15;;
2544;SDS011;36212;48.838;9.142;2022-10-13T05:04:09;22.50;;;18.83;;
2544;SDS011;36212;48.838;9.142;2022-10-13T05:06:41;19.80;;;17.48;;
2544;SDS011;36212;48.838;9.142;2022-10-13T05:09:33;23.65;;;18.25;;
2544;SDS011;36212;48.838;9.142;2022-10-13T05:12:05;21.83;;;17.13;;
2544;SDS011;36212;48.838;9.142;2022-10-13T05:14:37;18.85;;;16.85;;
2544;SDS011;36212;48.838;9.142;2022-10-13T05:17:09;21.58;;;16.40;;
2544;SDS011;36212;48.838;9.142;2022-10-13T05:19:41;39.20;;;17.40;;
2544;SDS011;36212;48.838;9.142;2022-10-13T05:22:13;18.67;;;15.13;;
2544;SDS011;36212;48.838;9.142;2022-10-13T05:24:46;19.25;;;16.40;;
2544;SDS011;36212;48.838;9.142;2022-10-13T05:27:18;23.17;;;18.13;;
2544;SDS011;36212;48.838;9.142;2022-10-13T05:29:52;22.30;;;18.10;;
2544;SDS011;36212;48.838;9.142;2022-10-13T05:32:24;23.55;;;18.58;;
2544;SDS011;36212;48.838;9.142;2022-10-13T05:34:56;19.85;;;16.75;;
2544;SDS011;36212;48.838;9.142;2022-10-13T05:37:28;28.23;;;18.42;;
2544;SDS011;36212;48.838;9.142;2022-10-13T05:40:00;22.65;;;19.27;;
2544;SDS011;36212;48.838;9.142;2022-10-13T05:42:33;22.08;;;16.50;;
2544;SDS011;36212;48.838;9.142;2022-10-13T05:45:09;20.52;;;16.00;;
2544;SDS011;36212;48.838;9.142;2022-10-13T05:47:42;23.75;;;17.70;;
2544;SDS011;36212;48.838;9.142;2022-10-13T05:50:14;23.40;;;17.45;;
2544;SDS011;36212;48.838;9.142;2022-10-13T05:52:46;24.60;;;16.80;;
2544;SDS011;36212;48.838;9.142;2022-10-13T05:55:18;21.23;;;16.85;;
2544;SDS011;36212;48.838;9.142;2022-10-13T05:57:50;20.83;;;16.05;;
2544;SDS011;36212;48.838;9.142;2022-10-13T06:00:23;19.05;;;16.65;;
2544;SDS011;36212;48.838;9.142;2022-10-13T06:03:01;19.77;;;15.68;;
2544;SDS011;36212;48.838;9.142;2022-10-13T06:05:42;19.90;;;16.15;;
2544;SDS011;36212;48.838;9.142;2022-10-13T06:08:17;22.13;;;16.98;;
2544;SDS011;36212;48.838;9.142;2022-10-13T06:10:49;23.00;;;17.08;;
2544;SDS011;36212;48.838;9.142;2022-10-13T06:13:21;21.58;;;18.02;;
2544;SDS011;36212;48.838;9.142;2022-10-13T06:15:53;23.15;;;17.65;;
2544;SDS011;36212;48.838;9.142;2022-10-13T06:18:26;21.98;;;17.50;;
2544;SDS011;36212;48.838;9.142;2022-10-13T06:20:58;26.33;;;18.67;;
2544;SDS011;36212;48.838;9.142;2022-10-13T06:23:30;27.60;;;20.23;;
2544;SDS011;36212;48.838;9.142;2022-10-13T06:26:02;23.55;;;19.35;;
2544;SDS011;36212;48.838;9.142;2022-10-13T06:28:35;23.95;;;19.33;;
2544;SDS011;36212;48.838;9.142;2022-10-13T06:31:07;24.10;;;18.98;;
2544;SDS011;36212;48.838;9.142;2022-10-13T06:33:40;26.27;;;18.92;;
2544;SDS011;36212;48.838;9.142;2022-10-13T06:36:12;21.80;;;18.95;;
2544;SDS011;36212;48.838;9.142;2022-10-13T06:38:44;23.58;;;20.95;;
2544;SDS011;36212;48.838;9.142;2022-10-13T06:41:17;28.13;;;19.85;;
2544;SDS011;36212;48.838;9.142;2022-10-13T06:43:49;24.73;;;19.60;;
2544;SDS011;36212;48.838;9.142;2022-10-13T06:46:21;22.90;;;18.15;;
2544;SDS011;36212;48.838;9.142;2022-10-13T06:48:53;23.42;;;17.85;;
2544;SDS011;36212;48.838;9.142;2022-10-13T06:51:25;22.42;;;18.80;;
2544;SDS011;36212;48.838;9.142;2022-10-13T06:53:57;23.15;;;19.40;;
2544;SDS011;36212;48.838;9.142;2022-10-13T06:56:30;23.80;;;18.48;;
2544;SDS011;36212;48.838;9.142;2022-10-13T06:59:02;24.80;;;17.40;;
2544;SDS011;36212;48.838;9.142;2022-10-13T07:01:34;25.05;;;19.30;;
2544;SDS011;36212;48.838;9.142;2022-10-13T07:04:12;24.10;;;19.05;;
2544;SDS011;36212;48.838;9.142;2022-10-13T07:06:44;25.35;;;19.20;;
2544;SDS011;36212;48.838;9.142;2022-10-13T07:09:16;23.80;;;19.70;;
2544;SDS011;36212;48.838;9.142;2022-10-13T07:11:50;37.63;;;22.27;;
2544;SDS011;36212;48.838;9.142;2022-10-13T07:14:25;24.90;;;20.85;;
2544;SDS011;36212;48.838;9.142;2022-10-13T07:17:01;24.90;;;20.38;;
2544;SDS011;36212;48.838;9.142;2022-10-13T07:19:33;29.38;;;20.70;;
2544;SDS011;36212;48.838;9.142;2022-10-13T07:22:05;27.08;;;21.15;;
2544;SDS011;36212;48.838;9.142;2022-10-13T07:24:37;29.50;;;20.17;;
2544;SDS011;36212;48.838;9.142;2022-10-13T07:27:09;22.55;;;19.15;;
2544;SDS011;36212;48.838;9.142;2022-10-13T07:29:41;21.42;;;19.08;;
2544;SDS011;36212;48.838;9.142;2022-10-13T07:32:14;27.67;;;19.85;;
2544;SDS011;36212;48.838;9.142;2022-10-13T07:34:46;29.88;;;19.38;;
2544;SDS011;36212;48.838;9.142;2022-10-13T07:37:21;23.30;;;18.77;;
2544;SDS011;36212;48.838;9.142;2022-10-13T07:39:55;24.60;;;19.63;;
2544;SDS011;36212;48.838;9.142;2022-10-13T07:42:29;22.52;;;18.02;;
2544;SDS011;36212;48.838;9.142;2022-10-13T07:45:02;23.30;;;18.55;;
2544;SDS011;36212;48.838;9.142;2022-10-13T07:47:35;23.90;;;18.30;;
2544;SDS011;36212;48.838;9.142;2022-10-13T07:50:07;21.50;;;18.33;;
2544;SDS011;36212;48.838;9.142;2022-10-13T07:52:41;23.83;;;18.85;;
2544;SDS011;36212;48.838;9.142;2022-10-13T07:55:13;19.38;;;17.35;;
2544;SDS011;36212;48.838;9.142;2022-10-13T07:57:45;25.35;;;19.95;;
2544;SDS011;36212;48.838;9.142;2022-10-13T08:00:17;21.52;;;18.60;;
2544;SDS011;36212;48.838;9.142;2022-10-13T08:02:49;23.42;;;19.35;;
2544;SDS011;36212;48.838;9.142;2022-10-13T08:05:22;20.40;;;16.25;;
2544;SDS011;36212;48.838;9.142;2022-10-13T08:07:54;23.80;;;15.93;;
2544;SDS011;36212;48.838;9.142;2022-10-13T08:10:29;17.88;;;15.23;;
2544;SDS011;36212;48.838;9.142;2022-10-13T08:13:01;17.17;;;15.30;;
2544;SDS011;36212;48.838;9.142;2022-10-13T08:15:33;18.88;;;14.38;;
2544;SDS011;36212;48.838;9.142;2022-10-13T08:18:10;19.48;;;13.90;;
2544;SDS011;36212;48.838;9.142;2022-10-13T08:20:44;14.27;;;12.77;;
2544;SDS011;36212;48.838;9.142;2022-10-13T08:23:17;12.80;;;11.60;;
2544;SDS011;36212;48.838;9.142;2022-10-13T08:25:49;18.73;;;11.75;;
2544;SDS011;36212;48.838;9.142;2022-10-13T08:28:23;12.68;;;11.25;;
2544;SDS011;36212;48.838;9.142;2022-10-13T08:31:01;13.75;;;11.05;;
2544;SDS011;36212;48.838;9.142;2022-10-13T08:33:33;13.52;;;11.70;;
2544;SDS011;36212;48.838;9.142;2022-10-13T08:36:06;14.93;;;11.98;;
2544;SDS011;36212;48.838;9.142;2022-10-13T08:38:39;12.00;;;10.70;;
2544;SDS011;36212;48.838;9.142;2022-10-13T08:41:16;13.77;;;11.40;;
2544;SDS011;36212;48.838;9.142;2022-10-13T08:44:00;11.35;;;10.35;;
2544;SDS011;36212;48.838;9.142;2022-10-13T08:47:17;16.52;;;9.18;;
2544;SDS011;36212;48.838;9.142;2022-10-13T08:50:10;11.70;;;10.30;;
2544;SDS011;36212;48.838;9.142;2022-10-13T08:52:49;11.27;;;8.82;;
2544;SDS011;36212;48.838;9.142;2022-10-13T08:55:40;10.52;;;9.38;;
2544;SDS011;36212;48.838;9.142;2022-10-13T09:07:14;10.13;;;9.13;;
2544;SDS011;36212;48.838;9.142;2022-10-13T09:10:04;9.13;;;8.15;;
2544;SDS011;36212;48.838;9.142;2022-10-13T09:12:38;11.57;;;9.30;;
2544;SDS011;36212;48.838;9.142;2022-10-13T09:15:10;12.32;;;8.27;;
2544;SDS011;36212;48.838;9.142;2022-10-13T09:17:43;8.95;;;8.05;;
2544;SDS011;36212;48.838;9.142;2022-10-13T09:20:34;9.23;;;8.00;;
2544;SDS011;36212;48.838;9.142;2022-10-13T09:25:51;11.43;;;7.97;;
2544;SDS011;36212;48.838;9.142;2022-10-13T09:28:36;11.02;;;8.32;;
2544;SDS011;36212;48.838;9.142;2022-10-13T09:31:42;8.38;;;7.40;;
2544;SDS011;36212;48.838;9.142;2022-10-13T09:34:12;10.63;;;8.50;;
2544;SDS011;36212;48.838;9.142;2022-10-13T09:36:54;8.10;;;7.30;;
2544;SDS011;36212;48.838;9.142;2022-10-13T09:39:30;8.75;;;7.35;;
2544;SDS011;36212;48.838;9.142;2022-10-13T09:45:15;9.10;;;7.47;;
2544;SDS011;36212;48.838;9.142;2022-10-13T09:47:52;12.43;;;7.73;;
2544;SDS011;36212;48.838;9.142;2022-10-13T09:50:33;9.75;;;8.05;;
2544;SDS011;36212;48.838;9.142;2022-10-13T09:59:34;9.73;;;7.88;;
2544;SDS011;36212;48.838;9.142;2022-10-13T10:05:06;11.40;;;6.70;;
2544;SDS011;36212;48.838;9.142;2022-10-13T10:08:13;11.02;;;7.00;;
2544;SDS011;36212;48.838;9.142;2022-10-13T10:11:44;7.57;;;6.97;;
2544;SDS011;36212;48.838;9.142;2022-10-13T10:14:24;10.07;;;7.75;;
2544;SDS011;36212;48.838;9.142;2022-10-13T10:29:43;7.00;;;6.40;;
2544;SDS011;36212;48.838;9.142;2022-10-13T10:32:39;11.33;;;6.60;;
2544;SDS011;36212;48.838;9.142;2022-10-13T10:41:25;6.75;;;6.15;;
2544;SDS011;36212;48.838;9.142;2022-10-13T10:44:36;10.38;;;6.28;;
2544;SDS011;36212;48.838;9.142;2022-10-13T10:47:20;9.93;;;6.38;;
2544;SDS011;36212;48.838;9.142;2022-10-13T10:50:05;11.07;;;6.55;;
2544;SDS011;36212;48.838;9.142;2022-10-13T10:53:03;7.07;;;6.38;;
2544;SDS011;36212;48.838;9.142;2022-10-13T10:55:52;7.97;;;6.55;;
2544;SDS011;36212;48.838;9.142;2022-10-13T11:01:45;7.93;;;6.28;;
2544;SDS011;36212;48.838;9.142;2022-10-13T11:04:48;7.75;;;6.05;;
2544;SDS011;36212;48.838;9.142;2022-10-13T11:10:19;7.38;;;6.03;;
2544;SDS011;36212;48.838;9.142;2022-10-13T11:15:44;7.53;;;6.15;;
2544;SDS011;36212;48.838;9.142;2022-10-13T11:24:45;6.50;;;5.90;;
2544;SDS011;36212;48.838;9.142;2022-10-13T11:39:49;9.55;;;6.50;;
2544;SDS011;36212;48.838;9.142;2022-10-13T11:46:07;6.70;;;6.10;;
2544;SDS011;36212;48.838;9.142;2022-10-13T11:55:10;9.03;;;6.13;;
2544;SDS011;36212;48.838;9.142;2022-10-13T12:01:03;6.77;;;5.70;;
2544;SDS011;36212;48.838;9.142;2022-10-13T12:03:43;5.90;;;5.40;;
2544;SDS011;36212;48.838;9.142;2022-10-13T12:09:13;8.27;;;6.23;;
2544;SDS011;36212;48.838;9.142;2022-10-13T12:11:57;6.53;;;5.90;;
2544;SDS011;36212;48.838;9.142;2022-10-13T12:14:49;7.23;;;5.33;;
2544;SDS011;36212;48.838;9.142;2022-10-13T12:20:15;17.03;;;6.20;;
2544;SDS011;36212;48.838;9.142;2022-10-13T12:22:59;10.13;;;5.50;;
2544;SDS011;36212;48.838;9.142;2022-10-13T12:25:31;9.23;;;6.40;;
2544;SDS011;36212;48.838;9.142;2022-10-13T12:28:18;6.20;;;5.70;;
2544;SDS011;36212;48.838;9.142;2022-10-13T12:30:52;7.80;;;5.53;;
2544;SDS011;36212;48.838;9.142;2022-10-13T12:33:32;6.30;;;5.70;;
2544;SDS011;36212;48.838;9.142;2022-10-13T12:36:15;6.23;;;5.63;;
2544;SDS011;36212;48.838;9.142;2022-10-13T12:38:52;6.67;;;6.17;;
2544;SDS011;36212;48.838;9.142;2022-10-13T12:41:32;6.70;;;5.63;;
2544;SDS011;36212;48.838;9.142;2022-10-13T12:44:12;7.10;;;5.40;;
2544;SDS011;36212;48.838;9.142;2022-10-13T12:47:08;7.50;;;5.77;;
2544;SDS011;36212;48.838;9.142;2022-10-13T12:58:30;9.30;;;6.27;;
2544;SDS011;36212;48.838;9.142;2022-10-13T13:01:50;8.33;;;5.93;;
2544;SDS011;36212;48.838;9.142;2022-10-13T13:10:13;6.60;;;5.30;;
2544;SDS011;36212;48.838;9.142;2022-10-13T13:12:48;8.53;;;4.80;;
2544;SDS011;36212;48.838;9.142;2022-10-13T13:21:03;7.43;;;5.33;;
2544;SDS011;36212;48.838;9.142;2022-10-13T13:23:40;13.73;;;6.33;;
2544;SDS011;36212;48.838;9.142;2022-10-13T13:26:18;5.43;;;4.60;;
2544;SDS011;36212;48.838;9.142;2022-10-13T13:28:53;5.30;;;4.83;;
2544;SDS011;36212;48.838;9.142;2022-10-13T13:31:26;6.63;;;5.07;;
2544;SDS011;36212;48.838;9.142;2022-10-13T13:33:58;5.57;;;4.90;;
2544;SDS011;36212;48.838;9.142;2022-10-13T13:36:31;5.03;;;4.63;;
2544;SDS011;36212;48.838;9.142;2022-10-13T13:39:03;4.53;;;4.13;;
2544;SDS011;36212;48.838;9.142;2022-10-13T13:41:44;4.77;;;4.37;;
2544;SDS011;36212;48.838;9.142;2022-10-13T13:44:17;5.80;;;4.60;;
2544;SDS011;36212;48.838;9.142;2022-10-13T13:46:49;9.10;;;5.43;;
2544;SDS011;36212;48.838;9.142;2022-10-13T13:49:21;5.90;;;5.03;;
2544;SDS011;36212;48.838;9.142;2022-10-13T13:51:53;6.40;;;5.80;;
2544;SDS011;36212;48.838;9.142;2022-10-13T13:54:25;6.43;;;5.90;;
2544;SDS011;36212;48.838;9.142;2022-10-13T13:56:57;7.50;;;5.70;;
2544;SDS011;36212;48.838;9.142;2022-10-13T13:59:29;6.00;;;5.60;;
2544;SDS011;36212;48.838;9.142;2022-10-13T14:02:01;12.27;;;6.27;;
2544;SDS011;36212;48.838;9.142;2022-10-13T14:04:35;6.20;;;5.60;;
2544;SDS011;36212;48.838;9.142;2022-10-13T14:07:08;8.37;;;5.40;;
2544;SDS011;36212;48.838;9.142;2022-10-13T14:09:41;7.70;;;5.03;;
2544;SDS011;36212;48.838;9.142;2022-10-13T14:12:14;11.03;;;6.50;;
2544;SDS011;36212;48.838;9.142;2022-10-13T14:14:46;7.90;;;6.13;;
2544;SDS011;36212;48.838;9.142;2022-10-13T14:17:18;6.50;;;5.90;;
2544;SDS011;36212;48.838;9.142;2022-10-13T14:19:50;10.37;;;6.70;;
2544;SDS011;36212;48.838;9.142;2022-10-13T14:22:24;7.53;;;6.67;;
2544;SDS011;36212;48.838;9.142;2022-10-13T14:24:57;7.83;;;7.13;;
2544;SDS011;36212;48.838;9.142;2022-10-13T14:27:29;9.13;;;6.70;;
2544;SDS011;36212;48.838;9.142;2022-10-13T14:30:06;7.50;;;6.50;;
2544;SDS011;36212;48.838;9.142;2022-10-13T14:32:40;10.30;;;8.10;;
2544;SDS011;36212;48.838;9.142;2022-10-13T14:35:12;11.30;;;7.45;;
2544;SDS011;36212;48.838;9.142;2022-10-13T14:37:45;8.10;;;7.40;;
2544;SDS011;36212;48.838;9.142;2022-10-13T14:40:17;8.20;;;7.15;;
2544;SDS011;36212;48.838;9.142;2022-10-13T14:42:49;10.83;;;8.40;;
2544;SDS011;36212;48.838;9.142;2022-10-13T14:45:21;9.53;;;7.90;;
2544;SDS011;36212;48.838;9.142;2022-10-13T14:47:53;11.13;;;8.30;;
2544;SDS011;36212;48.838;9.142;2022-10-13T14:50:25;8.43;;;7.50;;
2544;SDS011;36212;48.838;9.142;2022-10-13T14:52:57;9.35;;;7.68;;
2544;SDS011;36212;48.838;9.142;2022-10-13T14:55:29;8.97;;;7.57;;
2544;SDS011;36212;48.838;9.142;2022-10-13T14:58:03;14.15;;;9.38;;
2544;SDS011;36212;48.838;9.142;2022-10-13T15:00:35;11.95;;;9.45;;
2544;SDS011;36212;48.838;9.142;2022-10-13T15:03:08;12.13;;;9.70;;
2544;SDS011;36212;48.838;9.142;2022-10-13T15:05:41;11.10;;;9.60;;
2544;SDS011;36212;48.838;9.142;2022-10-13T15:08:14;11.00;;;9.88;;
2544;SDS011;36212;48.838;9.142;2022-10-13T15:10:46;15.32;;;10.07;;
2544;SDS011;36212;48.838;9.142;2022-10-13T15:13:29;16.35;;;10.85;;
2544;SDS011;36212;48.838;9.142;2022-10-13T15:16:02;13.20;;;11.40;;
2544;SDS011;36212;48.838;9.142;2022-10-13T15:18:37;11.98;;;10.02;;
2544;SDS011;36212;48.838;9.142;2022-10-13T15:21:09;13.13;;;10.45;;
2544;SDS011;36212;48.838;9.142;2022-10-13T15:23:46;10.45;;;9.45;;
2544;SDS011;36212;48.838;9.142;2022-10-13T15:26:21;14.18;;;9.55;;
2544;SDS011;36212;48.838;9.142;2022-10-13T15:28:53;11.45;;;9.35;;
2544;SDS011;36212;48.838;9.142;2022-10-13T15:31:27;12.27;;;9.98;;
2544;SDS011;36212;48.838;9.142;2022-10-13T15:34:02;13.23;;;10.20;;
2544;SDS011;36212;48.838;9.142;2022-10-13T15:36:35;11.40;;;10.20;;
2544;SDS011;36212;48.838;9.142;2022-10-13T15:39:08;13.95;;;9.68;;
2544;SDS011;36212;48.838;9.142;2022-10-13T15:41:42;9.90;;;8.90;;
2544;SDS011;36212;48.838;9.142;2022-10-13T15:44:14;14.02;;;9.77;;
2544;SDS011;36212;48.838;9.142;2022-10-13T15:46:53;11.52;;;10.52;;
2544;SDS011;36212;48.838;9.142;2022-10-13T15:49:38;10.35;;;9.35;;
2544;SDS011;36212;48.838;9.142;2022-10-13T15:52:12;12.40;;;9.52;;
2544;SDS011;36212;48.838;9.142;2022-10-13T15:54:44;11.00;;;9.68;;
2544;SDS011;36212;48.838;9.142;2022-10-13T15:57:20;9.70;;;8.90;;
2544;SDS011;36212;48.838;9.142;2022-10-13T15:59:53;12.70;;;10.32;;
2544;SDS011;36212;48.838;9.142;2022-10-13T16:02:26;11.88;;;9.57;;
2544;SDS011;36212;48.838;9.142;2022-10-13T16:04:59;11.77;;;10.57;;
2544;SDS011;36212;48.838;9.142;2022-10-13T16:07:37;9.40;;;8.52;;
2544;SDS011;36212;48.838;9.142;2022-10-13T16:10:12;11.10;;;10.00;;
2544;SDS011;36212;48.838;9.142;2022-10-13T16:12:46;11.00;;;9.77;;
2544;SDS011;36212;48.838;9.142;2022-10-13T16:15:20;13.40;;;10.15;;
2544;SDS011;36212;48.838;9.142;2022-10-13T16:17:58;13.45;;;10.60;;
2544;SDS011;36212;48.838;9.142;2022-10-13T16:20:31;11.52;;;10.48;;
2544;SDS011;36212;48.838;9.142;2022-10-13T16:23:14;16.08;;;12.07;;
2544;SDS011;36212;48.838;9.142;2022-10-13T16:25:50;15.40;;;12.77;;
2544;SDS011;36212;48.838;9.142;2022-10-13T16:28:23;15.88;;;14.27;;
2544;SDS011;36212;48.838;9.142;2022-10-13T16:30:56;15.82;;;12.60;;
2544;SDS011;36212;48.838;9.142;2022-10-13T16:33:44;13.25;;;11.70;;
2544;SDS011;36212;48.838;9.142;2022-10-13T16:36:26;13.00;;;11.80;;
2544;SDS011;36212;48.838;9.142;2022-10-13T16:39:05;14.93;;;12.13;;
2544;SDS011;36212;48.838;9.142;2022-10-13T16:41:38;16.42;;;14.75;;
2544;SDS011;36212;48.838;9.142;2022-10-13T16:44:10;14.75;;;13.30;;
2544;SDS011;36212;48.838;9.142;2022-10-13T16:46:43;13.80;;;12.57;;
2544;SDS011;36212;48.838;9.142;2022-10-13T16:49:18;13.38;;;12.07;;
2544;SDS011;36212;48.838;9.142;2022-10-13T16:51:50;13.45;;;12.15;;
2544;SDS011;36212;48.838;9.142;2022-10-13T16:54:23;11.75;;;10.55;;
2544;SDS011;36212;48.838;9.142;2022-10-13T16:56:55;12.20;;;11.10;;
2544;SDS011;36212;48.838;9.142;2022-10-13T16:59:28;13.80;;;12.35;;
2544;SDS011;36212;48.838;9.142;2022-10-13T17:02:00;14.30;;;12.80;;
2544;SDS011;36212;48.838;9.142;2022-10-13T17:04:33;14.75;;;12.10;;
2544;SDS011;36212;48.838;9.142;2022-10-13T17:07:05;13.90;;;12.57;;
2544;SDS011;36212;48.838;9.142;2022-10-13T17:09:38;23.17;;;14.93;;
2544;SDS011;36212;48.838;9.142;2022-10-13T17:12:10;16.95;;;14.43;;
2544;SDS011;36212;48.838;9.142;2022-10-13T17:14:42;15.35;;;13.82;;
2544;SDS011;36212;48.838;9.142;2022-10-13T17:17:16;15.32;;;11.77;;
2544;SDS011;36212;48.838;9.142;2022-10-13T17:19:50;14.25;;;12.95;;
2544;SDS011;36212;48.838;9.142;2022-10-13T17:22:22;15.93;;;12.73;;
2544;SDS011;36212;48.838;9.142;2022-10-13T17:24:54;12.15;;;11.10;;
2544;SDS011;36212;48.838;9.142;2022-10-13T17:27:27;14.43;;;12.77;;
2544;SDS011;36212;48.838;9.142;2022-10-13T17:29:59;13.88;;;11.98;;
2544;SDS011;36212;48.838;9.142;2022-10-13T17:32:35;20.70;;;13.43;;
2544;SDS011;36212;48.838;9.142;2022-10-13T17:35:09;13.30;;;11.93;;
2544;SDS011;36212;48.838;9.142;2022-10-13T17:37:47;15.95;;;13.10;;
2544;SDS011;36212;48.838;9.142;2022-10-13T17:40:20;13.30;;;12.02;;
2544;SDS011;36212;48.838;9.142;2022-10-13T17:42:52;15.38;;;12.50;;
2544;SDS011;36212;48.838;9.142;2022-10-13T17:45:26;18.48;;;14.30;;
2544;SDS011;36212;48.838;9.142;2022-10-13T17:48:00;15.80;;;14.38;;